Time;durP1;ratioP1;P1;durP2;ratioP2;P2;SDS_P1;SDS_P2;PMS_P1;PMS_P2;Temp;Humidity;BMP_temperature;BMP_pressure;BME280_temperature;BME280_humidity;BME280_pressure;Samples;Min_cycle;Max_cycle;Signal;HPM_P1;HPM_P2
2022/01/27 16:53:36;;;;;;;;;53.25;43.25;;;;;6.11;75.65;102675.84;5154226;27;45313;-88
2022/01/27 16:56:02;;;;;;;;;55.25;42.50;;;;;6.15;75.63;102646.56;5137573;27;45313;-80
2022/01/27 16:58:28;;;;;;;;;59.00;40.75;;;;;6.30;75.40;102634.31;5133645;27;45664;-85
2022/01/27 17:00:55;;;;;;;;;53.00;42.00;;;;;6.70;74.64;102679.66;5134968;27;45473;-72
2022/01/27 17:03:21;;;;;;;;;55.00;41.00;;;;;6.94;74.13;102690.38;5133784;27;45465;-80
2022/01/27 17:05:48;;;;;;;;;50.25;41.25;;;;;6.89;74.09;102663.19;5135302;27;45742;-82
2022/01/27 17:08:21;;;;;;;;;52.00;42.00;;;;;7.11;73.32;102671.19;5138235;27;45370;-86
2022/01/27 17:10:49;;;;;;;;;50.75;40.75;;;;;6.93;72.93;102619.13;5140963;27;45465;-82
2022/01/27 17:13:15;;;;;;;;;48.50;40.00;;;;;7.40;72.82;102674.28;5116059;27;46669;-72
2022/01/27 17:15:41;;;;;;;;;54.25;42.00;;;;;7.37;72.86;102650.66;5114571;27;45326;-69
2022/01/27 17:18:08;;;;;;;;;58.50;45.00;;;;;7.10;71.85;102588.66;5134163;27;45360;-68
2022/01/27 17:20:34;;;;;;;;;52.00;42.50;;;;;7.54;72.38;102661.88;5137748;27;45804;-68
2022/01/27 17:22:59;;;;;;;;;52.75;40.50;;;;;7.19;72.39;102572.56;5139269;27;46323;-75
2022/01/27 17:25:26;;;;;;;;;51.25;39.00;;;;;6.93;72.59;102530.56;5135809;27;45429;-75
2022/01/27 17:27:53;;;;;;;;;54.75;41.50;;;;;7.46;72.32;102622.41;5133248;27;45293;-68
2022/01/27 17:30:19;;;;;;;;;51.75;42.25;;;;;7.90;72.19;102678.28;5114115;27;45809;-79
2022/01/27 17:32:45;;;;;;;;;52.25;42.25;;;;;7.71;72.18;102636.53;5135365;27;46687;-76
2022/01/27 17:35:13;;;;;;;;;50.25;40.75;;;;;7.96;72.25;102688.97;5121043;27;45604;-78
2022/01/27 17:37:41;;;;;;;;;51.50;42.00;;;;;7.89;72.24;102668.66;5138134;27;45247;-78
2022/01/27 17:40:11;;;;;;;;;51.50;39.50;;;;;8.02;72.17;102686.66;5137553;27;45524;-77
2022/01/27 17:42:41;;;;;;;;;52.25;39.50;;;;;7.61;72.24;102622.19;5136212;27;45418;-78
2022/01/27 17:45:08;;;;;;;;;48.50;37.25;;;;;8.08;72.06;102689.50;5135946;27;45367;-77
2022/01/27 17:47:33;;;;;;;;;59.25;42.00;;;;;8.06;72.77;102690.25;5136555;27;45528;-73
2022/01/27 17:50:00;;;;;;;;;55.50;43.00;;;;;8.13;72.87;102686.22;5133291;27;45305;-76
2022/01/27 17:52:27;;;;;;;;;59.25;45.00;;;;;8.18;73.16;102684.69;5131535;27;46244;-75
2022/01/27 17:54:53;;;;;;;;;53.25;40.50;;;;;8.12;72.89;102671.38;5135711;27;45376;-72
2022/01/27 17:57:22;;;;;;;;;59.00;42.50;;;;;8.21;72.94;102685.72;5131922;27;45337;-69
2022/01/27 17:59:48;;;;;;;;;30.50;24.25;;;;;7.99;73.00;102657.78;5114826;27;45605;-76
2022/01/27 18:02:15;;;;;;;;;53.75;41.50;;;;;8.02;73.20;102657.03;5134463;27;45621;-76
2022/01/27 18:04:41;;;;;;;;;51.75;42.25;;;;;7.99;73.08;102660.41;5119138;27;45334;-75
2022/01/27 18:07:07;;;;;;;;;46.50;38.25;;;;;7.79;73.31;102615.19;5122480;27;45446;-76
2022/01/27 18:09:37;;;;;;;;;54.75;42.50;;;;;8.13;73.62;102683.59;5105359;27;45539;-71
2022/01/27 18:12:05;;;;;;;;;49.50;40.00;;;;;8.18;73.38;102695.13;5115895;27;45521;-72
2022/01/27 18:14:31;;;;;;;;;52.00;41.00;;;;;8.21;73.36;102706.59;5121802;27;45447;-68
2022/01/27 18:16:57;;;;;;;;;50.00;38.50;;;;;7.87;73.50;102639.00;5121008;27;45463;-74
2022/01/27 18:19:26;;;;;;;;;54.00;39.25;;;;;8.05;73.50;102688.50;5121040;27;45341;-74
2022/01/27 18:21:52;;;;;;;;;54.00;40.00;;;;;7.85;73.20;102648.47;5116466;27;45559;-68
2022/01/27 18:24:18;;;;;;;;;52.50;41.50;;;;;7.62;73.40;102626.59;5098457;27;45638;-68
2022/01/27 18:26:44;;;;;;;;;54.25;40.25;;;;;8.05;73.76;102688.50;5120866;27;45338;-68
2022/01/27 18:29:10;;;;;;;;;57.75;45.25;;;;;7.89;74.11;102671.25;5121075;27;45367;-77
2022/01/27 18:31:36;;;;;;;;;52.25;42.25;;;;;8.09;74.23;102703.44;5117931;27;46469;-76
2022/01/27 18:34:02;;;;;;;;;53.50;40.75;;;;;8.07;74.62;102695.56;5115973;27;45390;-74
2022/01/27 18:36:31;;;;;;;;;48.00;38.75;;;;;7.60;74.16;102616.09;5120722;27;45679;-73
2022/01/27 18:38:57;;;;;;;;;49.25;40.25;;;;;7.94;73.76;102674.09;5120147;27;45325;-80
2022/01/27 18:41:22;;;;;;;;;55.50;42.00;;;;;7.34;73.65;102577.56;5118486;27;45544;-72
2022/01/27 18:43:52;;;;;;;;;57.00;44.50;;;;;8.01;73.97;102683.97;5100680;27;45551;-76
2022/01/27 18:46:21;;;;;;;;;54.00;42.75;;;;;8.16;73.88;102704.59;5100110;27;45488;-72
2022/01/27 18:48:51;;;;;;;;;54.50;41.25;;;;;7.97;73.85;102698.59;5115705;27;45469;-77
2022/01/27 18:51:21;;;;;;;;;53.00;40.75;;;;;8.00;73.92;102690.00;5115659;27;47145;-72
2022/01/27 18:53:47;;;;;;;;;54.25;41.25;;;;;8.01;73.98;102695.28;5117517;27;45376;-84
2022/01/27 18:56:13;;;;;;;;;50.00;38.00;;;;;7.40;73.90;102603.88;5115518;27;45968;-76
2022/01/27 18:58:39;;;;;;;;;56.25;44.75;;;;;7.91;73.83;102674.84;5097718;27;45571;-74
2022/01/27 19:01:06;;;;;;;;;51.25;41.00;;;;;8.00;73.72;102701.34;5116030;27;46611;-71
2022/01/27 19:03:33;;;;;;;;;49.00;40.00;;;;;7.29;73.64;102579.94;5101490;27;45501;-69
2022/01/27 19:05:59;;;;;;;;;50.00;40.50;;;;;7.79;73.92;102654.31;5099018;27;45667;-79
2022/01/27 19:08:27;;;;;;;;;54.25;42.25;;;;;8.22;73.74;102728.38;5112193;27;45562;-70
2022/01/27 19:10:53;;;;;;;;;53.00;42.00;;;;;7.67;73.81;102624.22;5120064;27;46133;-73
2022/01/27 19:13:20;;;;;;;;;57.25;40.25;;;;;8.25;73.50;102718.06;5101772;27;45458;-73
2022/01/27 19:15:46;;;;;;;;;51.25;39.50;;;;;8.27;73.61;102725.13;5108759;27;45498;-69
2022/01/27 19:18:12;;;;;;;;;48.00;36.75;;;;;7.58;73.36;102599.50;5096576;27;45500;-75
2022/01/27 19:20:40;;;;;;;;;51.75;42.75;;;;;8.29;73.29;102725.19;5101134;27;47717;-73
2022/01/27 19:23:09;;;;;;;;;53.75;38.75;;;;;8.23;73.58;102723.22;5112595;27;45550;-72
2022/01/27 19:25:39;;;;;;;;;48.75;39.25;;;;;8.29;73.52;102741.75;5114622;27;45608;-70
2022/01/27 19:28:06;;;;;;;;;51.75;37.50;;;;;8.31;73.58;102736.63;5116068;27;45410;-67
2022/01/27 19:30:32;;;;;;;;;52.00;39.25;;;;;8.32;73.62;102740.09;5097403;27;45769;-70
2022/01/27 19:33:00;;;;;;;;;52.25;37.75;;;;;8.07;73.56;102697.28;5116326;27;45775;-73
2022/01/27 19:35:27;;;;;;;;;46.25;38.50;;;;;8.34;73.42;102744.56;5097954;27;45305;-71
2022/01/27 19:37:54;;;;;;;;;51.50;41.25;;;;;8.37;73.35;102749.03;5108689;27;45444;-75
2022/01/27 19:40:21;;;;;;;;;54.50;40.25;;;;;8.35;73.23;102750.69;5090810;27;47548;-74
2022/01/27 19:42:47;;;;;;;;;54.25;41.25;;;;;8.30;73.22;102740.03;5097205;27;46078;-77
2022/01/27 19:45:14;;;;;;;;;56.00;39.25;;;;;8.38;73.38;102748.22;5095175;27;45829;-74
2022/01/27 19:47:43;;;;;;;;;51.00;38.75;;;;;8.44;73.04;102761.56;5122355;27;45550;-75
2022/01/27 19:50:12;;;;;;;;;50.75;42.00;;;;;8.27;73.25;102740.78;5108623;27;46405;-73
2022/01/27 19:52:43;;;;;;;;;48.50;36.75;;;;;8.20;73.59;102722.19;5098118;27;45494;-67
2022/01/27 19:55:14;;;;;;;;;51.75;40.50;;;;;8.45;73.29;102764.25;5081559;27;45334;-69
2022/01/27 19:57:40;;;;;;;;;53.50;39.75;;;;;7.83;73.40;102674.50;5095585;27;45702;-72
2022/01/27 20:00:12;;;;;;;;;52.75;39.50;;;;;8.39;73.58;102763.94;5077679;27;46574;-72
2022/01/27 20:02:42;;;;;;;;;47.00;36.00;;;;;8.47;73.69;102777.34;5099697;27;45477;-77
2022/01/27 20:05:30;;;;;;;;;58.75;45.50;;;;;8.49;73.61;102780.91;5103912;27;45449;-69
2022/01/27 20:08:02;;;;;;;;;51.00;40.25;;;;;8.48;73.73;102777.41;5099147;27;45411;-76
2022/01/27 20:10:31;;;;;;;;;57.25;42.75;;;;;8.41;74.01;102769.25;5112063;27;45490;-72
2022/01/27 20:12:59;;;;;;;;;58.50;45.50;;;;;8.47;74.86;102788.72;5095243;27;45629;-78
2022/01/27 20:15:26;;;;;;;;;52.25;42.50;;;;;8.46;74.23;102776.47;5099280;27;45739;-76
2022/01/27 20:17:52;;;;;;;;;56.75;41.25;;;;;7.97;74.25;102696.00;5094816;27;45551;-72
2022/01/27 20:20:19;;;;;;;;;54.00;37.75;;;;;8.38;74.19;102758.66;5093835;27;46540;-72
2022/01/27 20:22:44;;;;;;;;;51.50;40.50;;;;;8.16;74.31;102734.22;5098394;27;45403;-73
2022/01/27 20:25:14;;;;;;;;;49.50;40.50;;;;;8.43;74.30;102775.44;5099142;27;45466;-72
2022/01/27 20:27:43;;;;;;;;;48.75;39.50;;;;;8.45;74.37;102781.63;5092446;27;45756;-74
2022/01/27 20:30:11;;;;;;;;;53.50;41.00;;;;;8.56;74.65;102806.47;5095014;27;45894;-73
2022/01/27 20:32:37;;;;;;;;;49.00;39.00;;;;;8.25;74.56;102757.22;5079896;27;45698;-74
2022/01/27 20:35:04;;;;;;;;;48.25;36.75;;;;;8.38;74.66;102777.81;5092732;27;45727;-73
2022/01/27 20:37:34;;;;;;;;;49.50;39.00;;;;;8.19;74.72;102747.41;5096334;27;45526;-70
2022/01/27 20:40:03;;;;;;;;;46.75;37.25;;;;;8.37;74.82;102781.25;5098562;27;45411;-70
2022/01/27 20:42:29;;;;;;;;;45.75;36.25;;;;;8.35;75.38;102774.16;5098501;27;45555;-76
2022/01/27 20:44:55;;;;;;;;;44.50;33.75;;;;;8.56;74.90;102819.53;5098733;27;45458;-73
2022/01/27 20:47:22;;;;;;;;;46.50;34.75;;;;;8.63;74.75;102825.94;5098725;27;45702;-72
2022/01/27 20:49:48;;;;;;;;;44.75;36.00;;;;;8.53;75.16;102816.81;5099273;27;46106;-73
2022/01/27 20:52:17;;;;;;;;;42.25;34.00;;;;;8.65;75.07;102830.38;5114325;27;45543;-73
2022/01/27 20:54:45;;;;;;;;;44.50;36.00;;;;;8.67;75.07;102836.56;5114593;27;45520;-77
2022/01/27 20:57:11;;;;;;;;;46.25;35.75;;;;;8.67;74.97;102852.25;5114952;27;45313;-72
2022/01/27 20:59:39;;;;;;;;;47.25;36.00;;;;;8.68;74.85;102840.06;5117529;27;45481;-69
2022/01/27 21:02:06;;;;;;;;;43.50;34.00;;;;;8.59;75.23;102818.78;5118299;27;45434;-68
2022/01/27 21:04:31;;;;;;;;;45.75;34.25;;;;;8.61;75.05;102819.75;5114099;27;45359;-73
2022/01/27 21:07:00;;;;;;;;;42.25;34.50;;;;;8.55;75.23;102809.94;5114928;27;45374;-70
2022/01/27 21:09:27;;;;;;;;;43.25;32.00;;;;;8.45;75.36;102792.09;5117938;27;45638;-74
2022/01/27 21:11:54;;;;;;;;;46.00;34.25;;;;;8.70;74.95;102841.03;5095296;27;45389;-72
2022/01/27 21:14:19;;;;;;;;;40.75;30.00;;;;;8.46;75.42;102789.50;5114981;27;45522;-69
2022/01/27 21:16:48;;;;;;;;;38.25;34.00;;;;;8.72;75.25;102838.50;5118171;27;45514;-71
2022/01/27 21:19:13;;;;;;;;;41.00;33.50;;;;;8.72;75.24;102833.28;5118858;27;46284;-70
2022/01/27 21:21:39;;;;;;;;;45.75;37.75;;;;;8.11;75.21;102730.50;5104559;27;45537;-68
2022/01/27 21:24:05;;;;;;;;;47.00;35.00;;;;;8.55;75.59;102806.44;5118441;27;45508;-70
2022/01/27 21:26:32;;;;;;;;;47.25;37.00;;;;;8.75;75.41;102838.63;5118235;27;45217;-68
2022/01/27 21:28:58;;;;;;;;;44.75;38.00;;;;;8.60;75.72;102817.97;5109737;27;46043;-67
2022/01/27 21:31:23;;;;;;;;;49.50;36.00;;;;;8.64;75.79;102822.50;5097772;27;45433;-70
2022/01/27 21:33:49;;;;;;;;;45.25;36.25;;;;;8.65;75.54;102834.72;5101265;27;45620;-68
2022/01/27 21:36:15;;;;;;;;;43.50;33.75;;;;;8.69;74.91;102841.88;5109321;27;45482;-68
2022/01/27 21:38:41;;;;;;;;;43.00;36.00;;;;;8.18;75.32;102753.44;5114360;27;46456;-70
2022/01/27 21:41:07;;;;;;;;;39.25;32.25;;;;;8.75;75.67;102855.19;5119598;27;45523;-71
2022/01/27 21:43:33;;;;;;;;;45.75;34.75;;;;;8.61;75.46;102838.94;5121131;27;45534;-69
2022/01/27 21:45:58;;;;;;;;;40.50;32.00;;;;;8.63;75.11;102852.94;5121545;27;45370;-70
2022/01/27 21:48:24;;;;;;;;;42.50;36.50;;;;;8.15;75.25;102755.03;5119919;27;46274;-68
2022/01/27 21:50:50;;;;;;;;;36.25;33.00;;;;;8.77;75.46;102869.22;5117324;27;45674;-68
2022/01/27 21:53:18;;;;;;;;;43.25;33.75;;;;;8.78;75.26;102862.25;5116740;27;45542;-72
2022/01/27 21:55:44;;;;;;;;;40.50;32.75;;;;;8.42;75.13;102802.38;5117023;27;45365;-71
2022/01/27 21:58:10;;;;;;;;;41.25;35.50;;;;;8.66;75.35;102847.88;5116809;27;46487;-69
2022/01/27 22:00:35;;;;;;;;;42.25;32.75;;;;;8.81;75.07;102875.50;5116963;27;45325;-69
2022/01/27 22:03:01;;;;;;;;;44.50;34.25;;;;;8.14;74.99;102761.06;5120201;27;45652;-74
2022/01/27 22:05:27;;;;;;;;;49.25;35.00;;;;;8.69;75.39;102860.16;5116884;27;45420;-75
2022/01/27 22:07:53;;;;;;;;;46.00;34.25;;;;;8.83;75.40;102879.06;5118281;27;45740;-77
2022/01/27 22:10:18;;;;;;;;;47.00;33.75;;;;;8.39;75.19;102803.09;5120607;27;45416;-71
2022/01/27 22:12:44;;;;;;;;;44.50;34.00;;;;;8.33;75.12;102795.00;5110763;27;45603;-70
2022/01/27 22:15:11;;;;;;;;;36.00;31.50;;;;;8.62;75.38;102863.34;5108705;27;45595;-72
2022/01/27 22:17:37;;;;;;;;;44.00;33.75;;;;;8.32;75.51;102805.38;5119550;27;45502;-69
2022/01/27 22:20:04;;;;;;;;;42.25;34.25;;;;;8.73;75.23;102872.50;5096466;27;45285;-74
2022/01/27 22:22:38;;;;;;;;;36.00;33.25;;;;;8.00;75.24;102737.88;5116406;27;45509;-76
2022/01/27 22:25:04;;;;;;;;;37.75;33.25;;;;;8.69;75.08;102853.22;5097110;27;45769;-69
2022/01/27 22:27:30;;;;;;;;;46.00;36.00;;;;;8.87;75.10;102887.09;5115349;27;45561;-71
2022/01/27 22:29:56;;;;;;;;;34.00;27.75;;;;;8.45;75.08;102813.88;5115574;27;45349;-77
2022/01/27 22:32:22;;;;;;;;;44.75;33.75;;;;;8.22;75.39;102783.19;5118110;27;45398;-73
2022/01/27 22:34:48;;;;;;;;;40.50;34.25;;;;;8.58;75.70;102837.91;5118722;27;45666;-69
2022/01/27 22:37:14;;;;;;;;;41.25;33.00;;;;;8.55;74.98;102836.03;5116370;27;45568;-69
2022/01/27 22:39:40;;;;;;;;;44.50;34.25;;;;;8.77;75.03;102877.06;5116420;27;45296;-74
2022/01/27 22:42:06;;;;;;;;;46.25;32.75;;;;;8.59;75.22;102844.91;5115413;27;45532;-74
2022/01/27 22:44:32;;;;;;;;;42.00;34.75;;;;;8.72;75.66;102862.91;5097778;27;45523;-78
2022/01/27 22:46:58;;;;;;;;;41.50;33.50;;;;;8.95;75.15;102904.84;5116152;27;46413;-79
2022/01/27 22:49:24;;;;;;;;;42.00;35.50;;;;;8.95;75.25;102903.13;5117838;27;45770;-78
2022/01/27 22:51:52;;;;;;;;;37.75;32.75;;;;;8.63;75.47;102842.50;5117931;27;45849;-70
2022/01/27 22:54:17;;;;;;;;;42.25;34.00;;;;;8.96;75.41;102917.94;5115785;27;45471;-78
2022/01/27 22:56:43;;;;;;;;;46.25;34.25;;;;;8.80;75.47;102882.41;5096311;27;45544;-72
2022/01/27 22:59:09;;;;;;;;;46.50;36.00;;;;;8.80;75.67;102881.53;5115755;27;45930;-76
2022/01/27 23:01:34;;;;;;;;;47.75;34.25;;;;;8.62;75.54;102850.28;5097482;27;45475;-78
2022/01/27 23:04:00;;;;;;;;;45.25;35.50;;;;;9.01;75.43;102916.41;5115314;27;45496;-75
2022/01/27 23:06:26;;;;;;;;;40.25;32.75;;;;;8.33;75.29;102783.66;5096164;27;47357;-76
2022/01/27 23:08:51;;;;;;;;;47.50;34.50;;;;;8.90;74.73;102879.38;5115494;27;45434;-77
2022/01/27 23:11:22;;;;;;;;;49.25;36.50;;;;;8.61;75.56;102840.63;5096675;27;45508;-76
2022/01/27 23:13:49;;;;;;;;;42.75;34.25;;;;;9.04;75.57;102908.75;5115838;27;45890;-74
2022/01/27 23:18:48;;;;;;;;;38.50;32.75;;;;;8.99;75.52;102917.19;5119080;27;45612;-78
2022/01/27 23:23:42;;;;;;;;;44.50;32.75;;;;;8.46;75.60;102833.91;5120100;27;45427;-72
2022/01/27 23:28:42;;;;;;;;;48.00;36.50;;;;;9.09;75.69;102945.53;5115815;27;45481;-79
2022/01/27 23:33:39;;;;;;;;;46.00;33.25;;;;;8.44;75.43;102825.13;5119610;27;45522;-70
2022/01/27 23:36:12;;;;;;;;;41.75;31.25;;;;;8.88;75.92;102899.34;5100644;27;47271;-77
2022/01/27 23:38:48;;;;;;;;;45.25;35.00;;;;;8.62;75.68;102850.28;5119098;27;45525;-73
2022/01/27 23:41:36;;;;;;;;;44.50;32.75;;;;;8.91;76.48;102895.97;5114839;27;45713;-74
2022/01/27 23:54:26;;;;;;;;;46.00;36.50;;;;;9.21;75.63;102947.78;5117078;27;45532;-74
2022/01/27 23:57:01;;;;;;;;;46.25;36.50;;;;;8.46;75.94;102817.34;5118753;27;45462;-72
